メインページ
METAR-TAF:

METAR-TAF

空港 :

富山空港

富山, 日本

緯度: 36-39N, 経度: 137-11E, 海抜: 24m

現時点の気象観測

当レポートは37分前の08:00(UTC)に作成
北西の風 3kt
気温 17°C
湿度 88%
気圧 1004 hPa
視程10km以上
高度1000ftの雲はほとんどない
高度5000ftの雲は散在している
高度6000ftの千切れ雲あり

METAR: RJNT 240800Z 31003KT 9999 FEW010 SCT050 BKN060 17/15 Q1004

時間: 17:37 (08:37 UTC)

予報

当レポートは3時間32分前の05:05(UTC)に作成
予報は24日の 06時(UTC)から 25日の 12時(UTC)まで有効
の風 6kt
視程: 8000m
高度800ftの雲はほとんどない
高度1500ftの千切れ雲あり
弱いにわか雨
24日の 09時(UTC)から 24日の 11時(UTC)まで徐々に
西の風 6kt
24日の 09時(UTC)から 24日の 12時(UTC)まで一時的に
視程: 4000m
高度500ftの雲はほとんどない
高度800ftの千切れ雲あり
弱いにわか雨, 靄,

TAF: RJNT 240505Z 2406/2512 35006KT 8000 -SHRA FEW008 BKN015 BECMG 2409/2411 26006KT TEMPO 2409/2412 4000 -SHRA BR FEW005 BKN008

4,000以上の空港の気象観測と天気予報(METAR報とTAF報)

利用可能な観測所は地図上に黄色い丸と赤い丸で示す。

丸の上にカーソルを重ねると観測所名を参照できる。

次にクリックすると気象観測と天気予報を参照できる。

マップの切り替え:黒色「×」印の緑ボタンをクリックして拡大、「-」印の緑ボタンをクリックして縮小、緑色の三角印をクリックして隣りの地図に切り替え


METAR-TAF: